createdAt,value
2023-04-09T00:01:16.574Z,101209.59
2023-04-09T00:06:17.922Z,101208.22
2023-04-09T00:11:19.280Z,101208.66
2023-04-09T00:16:20.663Z,101205.59
2023-04-09T00:21:22.233Z,101198.75
2023-04-09T00:26:23.644Z,101202.03
2023-04-09T00:31:25.169Z,101202.19
2023-04-09T00:36:27.164Z,101195.59
2023-04-09T00:41:28.500Z,101191.66
2023-04-09T00:46:31.710Z,101176.53
2023-04-09T00:51:33.519Z,101177.47
2023-04-09T00:56:36.259Z,101177.53
2023-04-09T01:01:37.718Z,101179.19
2023-04-09T01:06:53.735Z,101183.50
2023-04-09T01:12:31.920Z,101179.50
2023-04-09T01:17:55.569Z,101184.81
2023-04-09T01:23:34.740Z,101183.69
2023-04-09T01:28:41.692Z,101183.97
2023-04-09T01:33:43.935Z,101190.59
2023-04-09T01:38:48.497Z,101189.31
2023-04-09T01:43:51.866Z,101190.16
2023-04-09T01:48:55.153Z,101189.63
2023-04-09T01:53:56.637Z,101188.78
2023-04-09T01:58:57.955Z,101186.53
2023-04-09T02:04:05.316Z,101184.16
2023-04-09T02:09:08.937Z,101189.94
2023-04-09T02:14:12.322Z,101185.03
2023-04-09T02:19:13.668Z,101194.94
2023-04-09T02:24:15.151Z,101195.81
2023-04-09T02:29:16.554Z,101196.53
2023-04-09T02:34:19.429Z,101196.41
2023-04-09T02:39:20.770Z,101193.28
2023-04-09T02:44:22.138Z,101185.22
2023-04-09T02:49:23.665Z,101188.97
2023-04-09T02:54:25.052Z,101191.31
2023-04-09T02:59:26.420Z,101190.34
2023-04-09T03:04:27.807Z,101175.09
2023-04-09T03:09:30.278Z,101175.41
2023-04-09T03:14:31.660Z,101176.38
2023-04-09T03:19:33.592Z,101166.25
2023-04-09T03:24:34.970Z,101172.44
2023-04-09T03:29:36.359Z,101162.81
2023-04-09T03:34:37.719Z,101165.88
2023-04-09T03:39:39.180Z,101155.88
2023-04-09T03:44:40.521Z,101161.06
2023-04-09T03:49:41.893Z,101155.56
2023-04-09T03:54:43.500Z,101159.63
2023-04-09T03:59:45.325Z,101157.50
2023-04-09T04:04:46.737Z,101161.03
2023-04-09T04:09:48.127Z,101159.19
2023-04-09T04:14:49.446Z,101159.19
2023-04-09T04:19:50.788Z,101156.13
2023-04-09T04:24:52.108Z,101155.28
2023-04-09T04:29:53.440Z,101165.00
2023-04-09T04:34:54.843Z,101163.75
2023-04-09T04:39:56.164Z,101162.50
2023-04-09T04:57:09.298Z,101174.34
2023-04-09T05:02:11.586Z,101179.44
2023-04-09T05:07:13.686Z,101175.47
2023-04-09T05:12:18.153Z,101172.47
2023-04-09T05:22:36.900Z,101180.50
2023-04-09T05:27:54.771Z,101183.06
2023-04-09T05:32:58.766Z,101183.59
2023-04-09T05:38:00.662Z,101183.59
2023-04-09T05:43:02.776Z,101188.13
2023-04-09T05:48:04.882Z,101192.91
2023-04-09T05:53:06.638Z,101197.66
2023-04-09T06:14:40.892Z,101191.72
2023-04-09T06:19:43.354Z,101194.41
2023-04-09T06:51:31.681Z,101205.88
2023-04-09T06:56:34.285Z,101211.69
2023-04-09T07:01:37.584Z,101208.22
2023-04-09T07:06:40.283Z,101208.19
2023-04-09T07:11:41.684Z,101206.75
2023-04-09T07:16:44.202Z,101211.38
2023-04-09T07:21:45.623Z,101207.88
2023-04-09T07:26:46.984Z,101207.56
2023-04-09T07:31:48.448Z,101207.63
2023-04-09T07:36:50.149Z,101208.03
2023-04-09T07:41:51.456Z,101214.31
2023-04-09T07:46:52.913Z,101203.09
2023-04-09T07:51:54.290Z,101210.06
2023-04-09T07:56:56.583Z,101213.78
2023-04-09T08:01:58.067Z,101215.63
2023-04-09T08:06:59.503Z,101224.72
2023-04-09T08:12:01.158Z,101221.13
2023-04-09T08:17:02.706Z,101229.69
2023-04-09T08:22:04.164Z,101229.81
2023-04-09T08:27:05.556Z,101228.59
2023-04-09T08:32:07.013Z,101220.38
2023-04-09T08:37:08.460Z,101227.78
2023-04-09T08:42:12.523Z,101230.47
2023-04-09T08:47:14.355Z,101236.56
2023-04-09T08:52:17.601Z,101234.72
2023-04-09T08:57:18.931Z,101236.72
2023-04-09T09:02:20.438Z,101234.97
2023-04-09T09:07:21.922Z,101240.34
2023-04-09T09:12:31.854Z,101235.03
2023-04-09T09:17:34.490Z,101232.34
2023-04-09T09:22:55.205Z,101228.22
2023-04-09T09:28:07.543Z,101235.38
2023-04-09T09:33:10.745Z,101239.81
2023-04-09T09:38:12.149Z,101233.72
2023-04-09T09:43:14.716Z,101235.19
2023-04-09T09:48:16.443Z,101228.88
2023-04-09T09:53:22.947Z,101227.59
2023-04-09T09:58:31.843Z,101222.19
2023-04-09T10:03:37.493Z,101225.38
2023-04-09T10:08:42.156Z,101218.69
2023-04-09T10:13:49.660Z,101218.19
2023-04-09T10:18:51.572Z,101216.78
2023-04-09T10:23:53.947Z,101213.72
2023-04-09T10:29:09.020Z,101208.19
2023-04-09T10:34:11.015Z,101200.44
2023-04-09T10:39:16.013Z,101195.34
2023-04-09T10:44:26.246Z,101198.88
2023-04-09T10:49:28.015Z,101194.75
2023-04-09T10:54:35.163Z,101188.28
2023-04-09T10:59:37.277Z,101186.81
2023-04-09T11:05:02.419Z,101186.47
2023-04-09T11:10:04.097Z,101181.16
2023-04-09T11:15:05.972Z,101179.91
2023-04-09T11:20:07.578Z,101183.13
2023-04-09T11:25:09.227Z,101174.19
2023-04-09T11:30:10.960Z,101179.06
2023-04-09T11:35:14.237Z,101177.53
2023-04-09T11:40:26.571Z,101164.72
2023-04-09T11:45:29.586Z,101167.56
2023-04-09T11:50:31.970Z,101175.16
2023-04-09T11:55:33.554Z,101165.56
2023-04-09T12:00:34.947Z,101173.34
2023-04-09T12:05:37.126Z,101163.09
2023-04-09T12:10:39.997Z,101161.38
2023-04-09T12:15:43.389Z,101161.78
2023-04-09T12:20:47.444Z,101155.06
2023-04-09T12:25:48.782Z,101151.09
2023-04-09T12:30:50.931Z,101153.88
2023-04-09T12:35:52.343Z,101143.84
2023-04-09T12:40:53.791Z,101142.75
2023-04-09T12:45:55.200Z,101150.75
2023-04-09T12:50:56.549Z,101134.41
2023-04-09T12:55:58.240Z,101131.25
2023-04-09T13:00:59.680Z,101122.88
2023-04-09T13:06:01.138Z,101109.38
2023-04-09T13:11:02.764Z,101113.53
2023-04-09T13:16:04.472Z,101103.06
2023-04-09T13:21:06.046Z,101098.81
2023-04-09T13:26:07.383Z,101103.38
2023-04-09T13:31:08.792Z,101099.81
2023-04-09T13:36:10.515Z,101086.41
2023-04-09T13:41:11.972Z,101094.34
2023-04-09T13:46:13.448Z,101084.72
2023-04-09T13:51:14.890Z,101073.75
2023-04-09T13:56:16.694Z,101065.38
2023-04-09T14:01:18.164Z,101054.22
2023-04-09T14:06:19.592Z,101057.66
2023-04-09T14:11:21.158Z,101049.88
2023-04-09T14:16:23.599Z,101044.16
2023-04-09T14:21:26.502Z,101039.97
2023-04-09T14:26:28.966Z,101040.53
2023-04-09T14:31:30.627Z,101044.56
2023-04-09T14:36:32.171Z,101046.28
2023-04-09T14:41:34.216Z,101042.56
2023-04-09T14:46:36.587Z,101033.84
2023-04-09T14:51:38.022Z,101034.63
2023-04-09T14:56:39.443Z,101029.66
2023-04-09T15:01:40.889Z,101026.47
2023-04-09T15:06:42.395Z,101020.47
2023-04-09T15:11:43.763Z,101012.06
2023-04-09T15:16:45.282Z,101006.28
2023-04-09T15:21:46.608Z,101004.59
2023-04-09T15:26:47.962Z,101001.44
2023-04-09T15:31:53.053Z,100991.47
2023-04-09T15:36:54.503Z,100997.81
2023-04-09T15:41:58.781Z,101000.59
2023-04-09T15:47:00.149Z,100993.91
2023-04-09T15:52:01.486Z,100992.47
2023-04-09T15:57:04.152Z,100993.56
2023-04-09T16:02:06.018Z,100990.81
2023-04-09T16:07:07.703Z,100997.06
2023-04-09T16:12:09.191Z,100984.28
2023-04-09T16:17:10.790Z,100981.94
2023-04-09T16:22:12.497Z,100980.69
2023-04-09T16:27:14.383Z,100973.72
2023-04-09T16:32:15.972Z,100978.88
2023-04-09T16:37:17.312Z,100971.41
2023-04-09T16:42:18.663Z,100968.28
2023-04-09T16:47:20.163Z,100973.91
2023-04-09T16:52:21.687Z,100976.03
2023-04-09T16:57:22.996Z,100970.63
2023-04-09T17:02:24.695Z,100976.25
2023-04-09T17:07:26.361Z,100961.66
2023-04-09T17:12:27.724Z,100957.78
2023-04-09T17:17:29.161Z,100957.25
2023-04-09T17:22:30.553Z,100965.63
2023-04-09T17:27:32.029Z,100968.69
2023-04-09T17:32:33.384Z,100970.47
2023-04-09T17:37:34.892Z,100977.56
2023-04-09T17:42:36.236Z,100982.16
2023-04-09T17:47:38.996Z,100981.22
2023-04-09T17:52:40.624Z,100982.34
2023-04-09T17:57:42.680Z,100987.19
2023-04-09T18:02:44.912Z,100991.31
2023-04-09T18:07:46.430Z,100999.00
2023-04-09T18:12:47.728Z,100996.63
2023-04-09T18:17:49.238Z,101006.75
2023-04-09T18:22:50.720Z,101007.16
2023-04-09T18:27:52.086Z,101006.13
2023-04-09T18:32:53.770Z,101015.72
2023-04-09T18:37:55.201Z,101020.19
2023-04-09T18:42:56.746Z,101018.66
2023-04-09T18:47:58.116Z,101024.84
2023-04-09T18:52:59.497Z,101024.31
2023-04-09T18:58:01.951Z,101029.38
2023-04-09T19:03:04.521Z,101036.69
2023-04-09T19:08:06.833Z,101026.78
2023-04-09T19:13:08.237Z,101032.56
2023-04-09T19:18:09.628Z,101039.81
2023-04-09T19:23:10.966Z,101039.31
2023-04-09T19:28:12.294Z,101041.78
2023-04-09T19:33:13.625Z,101040.53
2023-04-09T19:38:16.283Z,101041.75
2023-04-09T19:43:17.776Z,101047.53
2023-04-09T19:48:19.189Z,101043.84
2023-04-09T19:53:20.566Z,101048.09
2023-04-09T19:58:22.114Z,101036.50
2023-04-09T20:03:23.593Z,101039.31
2023-04-09T20:08:25.054Z,101042.84
2023-04-09T20:13:26.618Z,101039.13
2023-04-09T20:18:28.576Z,101037.06
2023-04-09T20:23:30.221Z,101046.47
2023-04-09T20:28:31.824Z,101046.28
2023-04-09T20:33:33.944Z,101042.03
2023-04-09T20:38:35.305Z,101044.09
2023-04-09T20:43:38.252Z,101051.41
2023-04-09T20:48:39.779Z,101044.19
2023-04-09T20:53:41.135Z,101047.13
2023-04-09T20:58:42.491Z,101057.16
2023-04-09T21:03:44.289Z,101059.94
2023-04-09T21:08:45.912Z,101056.34
2023-04-09T21:13:54.478Z,101060.63
2023-04-09T21:18:57.096Z,101050.66
2023-04-09T21:23:58.432Z,101046.84
2023-04-09T21:28:59.866Z,101049.84
2023-04-09T21:34:01.246Z,101039.69
2023-04-09T21:39:03.709Z,101039.47
2023-04-09T21:44:08.125Z,101036.03
2023-04-09T21:49:09.585Z,101036.56
2023-04-09T21:54:11.251Z,101033.72
2023-04-09T21:59:12.599Z,101039.38
2023-04-09T22:04:14.217Z,101051.53
2023-04-09T22:09:15.858Z,101041.22
2023-04-09T22:14:17.822Z,101041.41
2023-04-09T22:19:19.147Z,101042.44
2023-04-09T22:24:27.045Z,101042.44
2023-04-09T22:29:29.301Z,101046.31
2023-04-09T22:34:30.658Z,101051.69
2023-04-09T22:39:31.998Z,101043.78
2023-04-09T22:44:33.388Z,101035.78
2023-04-09T22:49:34.923Z,101039.38
2023-04-09T22:54:37.868Z,101030.66
2023-04-09T22:59:40.678Z,101030.91
2023-04-09T23:04:42.480Z,101032.19
2023-04-09T23:09:45.148Z,101040.69
2023-04-09T23:14:48.234Z,101047.59
2023-04-09T23:19:52.287Z,101040.28
2023-04-09T23:24:53.627Z,101039.16
2023-04-09T23:29:56.434Z,101040.84
2023-04-09T23:34:58.827Z,101039.56
2023-04-09T23:40:00.334Z,101049.03
2023-04-09T23:45:05.944Z,101031.84
2023-04-09T23:50:08.217Z,101037.03
2023-04-09T23:55:10.582Z,101036.03
